Details From YBCG - Gold Coast International
To YLHI - Lord Howe Island
Flight Number -
Tags generated
Created
Modified
Stats Distance 356 nm / 659 km
Max Altitude 35,000 ft / 10,668 m
Waypoints 4
Social Downloads 0
Likes 0
Share VATSIM

Download

Looking for another format? Having issues loading an existing format? Contact us
Advertisement - Login to hide

Notes

Basic altitude profile: - Ascent Rate: 2500ft/min - Ascent Speed: 250kts - Cruise Altitude: 35000ft - Cruise Speed: 420kts - Descent Rate: 1500ft/min - Descent Speed: 250kts

Route

YBCG CHEWY J208 LHI YLHI

ID Type Via Altitude Latitude Longitude Leg Dist Tot Dist Heading (true) Name
O YBCG APT - 0 ft / 0 m -28.16604˚ 153.50616˚ - 0 nm - Gold Coast International
CHEWY FIX - 35,000 ft / 10,668 m -28.96806˚ 155.31500˚ 106 nm 106 nm 117° / 116° -
LHI NDB J208 (AWY-HI) 23,500 ft / 7,163 m -31.52889˚ 159.07306˚ 248 nm 355 nm 129° / 127° LORD HOWE ISLAND NDB
O YLHI APT - 0 ft / 0 m -31.53841˚ 159.07599˚ 0 nm 355 nm 165° / 165° Lord Howe Island

Altitude Profile

Advertisement - Login to hide

Weather


0- 5 10 15 20 25 30 35+ Temperature / ° C

Clouds and Precipitation
Forecast for 2017-12-14 06:00 UTC. Updated an hour ago

Ground ~20,000 ft ~40,000 ft Winds

YBCG

Details ICAO YBCG (OOL)
Name Gold Coast International
Region Australia
Timezone Australia/Brisbane (UTC+10.0)
Stats Elevation 20 ft / 6 m (AMSL)
Location -28.166035° 153.506155°
Runways 2
Magnetic Variation 11.330° E

METAR

YBCG 140200Z AUTO 04010KT 9999 // NCD 27/18 Q1012 RF00.0/000.0

Decode

TAF

TAF YBCG 132318Z 1400/1424 03012KT 9999 FEW030 FM140800 02007KT 9999 FEW025 FM142300 03012KT 9999 FEW035

Decode

Departure Runways

ID Width Length Bearing (true) Bearing (mag) Surface Threshold Offset Overrun Length
14 148 ft / 45 m 7,687 ft / 2,343 m 150.04° 138.71° Asphalt 0 ft / 0 m 394 ft / 120 m
17 59 ft / 18 m 1,911 ft / 582 m 184.00° 172.67° Asphalt 0 ft / 0 m 0 ft / 0 m
32 148 ft / 45 m 7,687 ft / 2,343 m 330.04° 318.71° Asphalt 0 ft / 0 m 394 ft / 120 m
35 59 ft / 18 m 1,911 ft / 582 m 4.00° 352.67° Asphalt 0 ft / 0 m 0 ft / 0 m

YLHI

Details ICAO YLHI (LDH)
Name Lord Howe Island
Region Australia
Timezone Unknown (UTC+0.0)
Stats Elevation 16 ft / 5 m (AMSL)
Location -31.538405° 159.075986°
Runways 1
Magnetic Variation 14.053° E

METAR

YLHI 140200Z 05011KT 9999 BKN035 24/17 Q1014

Decode

TAF

TAF YLHI 132320Z 1400/1424 07010KT 9999 SCT025 BKN035 FM141300 03008KT 9999 SCT015 BKN025 FM141600 04012KT 9999 SCT010 BKN020

Decode

Destination Runways

ID Width Length Bearing (true) Bearing (mag) Surface Threshold Offset Overrun Length
10 98 ft / 30 m 2,902 ft / 885 m 114.50° 100.45° Asphalt 0 ft / 0 m 194 ft / 59 m
28 98 ft / 30 m 2,902 ft / 885 m 294.50° 280.45° Asphalt 322 ft / 98 m 190 ft / 58 m